• Join FlightAware (Why Join?)
  • Login
  • US Flag 
09:36AM EDT


 

Airport Tracker/Info


-or-


 

Live Flight TrackerFlight Track Log ✈ UAL4234 ✈ 29-Aug-2013 ✈ KORD - CYOW

Flight Track Log - Related Links

Times and Time Zones

All times are in EDT time to prevent confusion due to time zone crossing. See the UAL4234 flight status page for this flight to view local times or setup timezone preferences in your user account.

Time Position Orientation Groundspeed Altitude Reporting Facility
EDT Latitude Longitude Course Direction KTS MPH feet Rate Location/Type
01:04PM 41.9333 -87.8667 77° East 205 236 2,400  Level Chicago TRACON
01:05PM 41.9500 -87.7833 75° East 210 242 4,800 1,500 Climbing Chicago TRACON
01:07PM 41.9756 -87.6008 79° East 251 289 7,100 1,320 Climbing Chicago Center
01:08PM 42.2036 -87.2559 66° East  Level FlightAware Approximate
01:08PM 42.0169 -87.5189 56° Northeast 268 308 8,900  Level Chicago Center
01:09PM 42.2482 -87.1221 66° East  Level FlightAware Approximate
01:09PM 42.0664 -87.4347 52° Northeast 285 328 10,100  Level Chicago Center
01:10PM 42.2755 -86.9803 77° East  Level FlightAware Approximate
01:10PM 42.1164 -87.3475 52° Northeast 293 337 11,700  Level Chicago Center
01:11PM 42.1794 -87.2381 52° Northeast 310 357 13,300 1,260 Climbing Chicago Center
01:12PM 42.2206 -87.1294 63° Northeast 328 377 14,400 1,080 Climbing Chicago Center
01:13PM 42.2275 -86.9967 86° East 353 406 15,600 1,020 Climbing Chicago Center
01:15PM 42.2331 -86.8614 87° East 359 413 16,600 960 Climbing Chicago Center
01:16PM 42.2389 -86.7247 87° East 365 420 17,700 960 Climbing Chicago Center
01:17PM 42.2450 -86.5756 87° East 372 428 18,600 960 Climbing Chicago Center
01:18PM 42.2514 -86.4356 86° East 374 430 19,700 1,020 Climbing Chicago Center
01:19PM 42.2569 -86.2939 87° East 377 434 20,800 1,080 Climbing Chicago Center
01:20PM 42.2633 -86.1200 87° East 385 443 22,000 1,080 Climbing Chicago Center
01:21PM 42.2692 -85.9742 87° East 388 447 23,100 960 Climbing Chicago Center
01:22PM 42.2733 -85.8417 88° East 388 447 24,100 960 Climbing Chicago Center
01:23PM 42.2789 -85.6953 87° East 391 450 25,100 1,080 Climbing Chicago Center
01:24PM 42.2847 -85.5178 87° East 397 457 26,400 1,080 Climbing Chicago Center
01:25PM 42.2906 -85.3689 87° East 399 459 27,400 960 Climbing Chicago Center
01:26PM 42.2939 -85.2217 88° East 396 456 28,500 960 Climbing Chicago Center
01:27PM 42.2994 -85.0747 87° East 395 455 29,500 960 Climbing Chicago Center
01:28PM 42.2981 -84.9244 91° East 400 460 30,600 1,080 Climbing Chicago Center
01:29PM 42.3100 -84.7486 85° East 390 449 31,800 1,080 Climbing Chicago Center
01:30PM 42.3414 -84.6111 73° East 386 444 32,900 960 Climbing Chicago Center
01:31PM 42.3708 -84.4711 74° East 388 447 33,900 960 Climbing Chicago Center
01:32PM 42.3964 -84.3481 74° East 386 444 34,900 540 Climbing Cleveland Center
01:33PM 42.4281 -84.2067 73° East 386 444 35,000  Climbing Cleveland Center
01:34PM 42.4600 -84.0564 74° East 392 451 35,000  Level Cleveland Center
01:35PM 42.4936 -83.9006 74° East 413 475 35,000  Level Cleveland Center
01:36PM 42.5275 -83.7389 74° East 426 490 35,000  Level Cleveland Center
01:37PM 42.5631 -83.5772 73° East 439 505 35,000  Level Cleveland Center
01:38PM 42.5964 -83.4122 75° East 444 511 35,000  Level Cleveland Center
01:39PM 42.6294 -83.2472 75° East 449 517 35,000  Level Cleveland Center
01:40PM 42.6669 -83.0681 74° East 449 517 35,000  Level Cleveland Center
01:41PM 42.6994 -82.9028 75° East 449 517 35,000  Level Cleveland Center
01:42PM 42.7319 -82.7342 75° East 449 517 35,000  Level Cleveland Center
01:43PM 42.7661 -82.5658 74° East 449 517 35,000  Level Cleveland Center
01:44PM 42.7981 -82.3942 76° East 449 517 35,000  Level Cleveland Center
01:45PM 42.8319 -82.2281 74° East 449 517 35,000  Level Cleveland Center
01:46PM 42.8656 -82.0533 75° East 454 522 35,000  Level Cleveland Center
01:48PM 42.9167 -81.7667 76° East 470 541 35,000  Level Toronto Center
01:49PM 42.9333 -81.5833 83° East 460 529 35,000  Level Toronto Center
01:50PM 42.9667 -81.4333 73° East 460 529 35,000  Level Toronto Center
01:51PM 43.0000 -81.2667 75° East 460 529 35,000  Level Toronto Center
01:52PM 43.0333 -81.1000 75° East 460 529 35,000  Level Toronto Center
01:53PM 43.1000 -80.9500 59° Northeast 450 518 35,000  Level Toronto Center
01:54PM 43.1667 -80.8000 59° Northeast 440 506 35,000  Level Toronto Center
01:55PM 43.2333 -80.6667 56° Northeast 440 506 35,000  Level Toronto Center
01:56PM 43.2833 -80.5000 68° East 440 506 35,000  Level Toronto Center
01:57PM 43.3500 -80.3667 55° Northeast 440 506 35,000  Level Toronto Center
01:58PM 43.4000 -80.2333 63° Northeast 440 506 35,000  Level Toronto Center
01:59PM 43.4667 -80.0667 61° Northeast 440 506 35,000  Level Toronto Center
02:00PM 43.5167 -79.9333 63° Northeast 440 506 35,000  Level Toronto Center
02:01PM 43.5833 -79.7667 61° Northeast 440 506 35,000  Level Toronto Center
02:02PM 43.6500 -79.6333 55° Northeast 460 529 35,000  Level Toronto Center
02:03PM 43.7000 -79.4500 69° East 470 541 35,000  Level Toronto Center
02:04PM 43.7500 -79.2833 67° East 450 518 35,000  Level Toronto Center
02:05PM 43.7833 -79.1500 71° East 450 518 35,000  Level Toronto Center
02:06PM 43.8333 -78.9667 69° East 450 518 35,000  Level Toronto Center
02:07PM 43.8833 -78.8000 67° East 450 518 35,000  Level Toronto Center
02:08PM 43.9333 -78.6333 67° East 450 518 35,000  Level Toronto Center
02:09PM 43.9667 -78.4667 74° East 450 518 35,000  Level Toronto Center
02:10PM 44.0167 -78.3333 62° Northeast 450 518 35,000  Level Toronto Center
02:11PM 44.0833 -78.1667 61° Northeast 450 518 35,000  Level Toronto Center
02:12PM 44.1333 -78.0333 62° Northeast 430 495 35,000  Level Toronto Center
02:13PM 44.2000 -77.8833 58° Northeast 430 495 35,000  Level Toronto Center
02:14PM 44.2667 -77.7500 55° Northeast 430 495 35,000 -240 Level Toronto Center
02:15PM 44.3333 -77.6000 58° Northeast 430 495 34,600 -1,140 Descending Toronto Center
02:16PM 44.4000 -77.4667 55° Northeast 430 495 32,800 -1,800 Descending Toronto Center
02:17PM 44.4667 -77.3500 51° Northeast 430 495 31,100 -2,040 Descending Montreal Center
02:18PM 44.5167 -77.2167 62° Northeast 430 495 28,900 -2,520 Descending Montreal Center
02:19PM 44.5833 -77.0667 58° Northeast 420 483 26,100 -3,240 Descending Montreal Center
02:20PM 44.6500 -76.9333 55° Northeast 410 472 22,500 -3,360 Descending Montreal Center
02:21PM 44.7000 -76.8167 59° Northeast 400 460 19,400 -2,760 Descending Montreal Center
02:22PM 44.7667 -76.7000 51° Northeast 380 437 17,000 -2,400 Descending Montreal Center
02:23PM 44.8333 -76.5833 51° Northeast 370 426 14,600 -2,160 Descending Montreal Center
02:24PM 44.8833 -76.4667 59° Northeast 360 414 12,700 -1,320 Descending Montreal Center
02:25PM 44.9500 -76.3500 51° Northeast 350 403 12,000 -360 Descending Montreal Center
02:26PM 45.0000 -76.2500 55° Northeast 350 403 12,000 -900 Level Montreal Center
02:27PM 45.0500 -76.1500 55° Northeast 300 345 10,200 -1,920 Descending Montreal Center
02:28PM 45.1000 -76.0667 50° Northeast 270 311 8,200 -2,100 Descending Montreal Center
02:29PM 45.1500 -76.0000 43° Northeast 240 276 6,000 -2,040 Descending Montreal Center
02:30PM 45.1833 -75.9167 60° Northeast 230 265 4,200 -1,440 Descending Montreal Center
02:31PM 45.2167 -75.8500 55° Northeast 210 242 3,200 -1,080 Descending Montreal Center
02:32PM 45.2500 -75.7833 55° Northeast 210 242 2,100 -1,080 Descending Montreal Center
02:33PM 45.2667 -75.7000 74° East 180 207 1,100 -900 Descending Montreal Center
02:34PM 45.3000 -75.6667 35° Northeast 140 161 400 -720 Descending Montreal Center